createdAt,value
2019-04-20T00:02:33.717Z,2.00
2019-04-20T00:07:41.840Z,1.90
2019-04-20T00:13:03.918Z,1.90
2019-04-20T00:18:04.396Z,1.90
2019-04-20T00:23:26.957Z,1.90
2019-04-20T00:28:45.691Z,2.00
2019-04-20T00:33:50.692Z,2.00
2019-04-20T00:38:52.948Z,2.00
2019-04-20T00:43:57.795Z,2.00
2019-04-20T00:49:20.733Z,2.00
2019-04-20T00:54:13.624Z,1.90
2019-04-20T00:59:31.736Z,1.80
2019-04-20T01:04:47.668Z,1.80
2019-04-20T01:10:05.022Z,1.70
2019-04-20T01:15:22.866Z,1.60
2019-04-20T01:20:22.619Z,1.60
2019-04-20T01:25:35.540Z,1.70
2019-04-20T01:30:44.447Z,1.50
2019-04-20T01:36:03.461Z,1.40
2019-04-20T01:40:59.043Z,1.40
2019-04-20T01:46:12.069Z,1.40
2019-04-20T01:51:22.827Z,1.40
2019-04-20T01:56:37.703Z,1.50
2019-04-20T02:01:55.784Z,1.60
2019-04-20T02:07:00.467Z,1.40
2019-04-20T02:12:12.118Z,1.20
2019-04-20T02:17:26.201Z,1.10
2019-04-20T02:22:45.116Z,1.00
2019-04-20T02:27:38.603Z,0.90
2019-04-20T02:33:30.019Z,0.80
2019-04-20T02:38:54.334Z,0.90
2019-04-20T02:44:03.761Z,0.90
2019-04-20T02:49:06.051Z,0.90
2019-04-20T02:54:11.485Z,0.90
2019-04-20T02:59:44.646Z,0.80
2019-04-20T03:03:53.898Z,1.00
2019-04-20T03:09:19.860Z,1.00
2019-04-20T03:14:22.464Z,1.10
2019-04-20T03:19:28.649Z,1.30
2019-04-20T03:24:51.558Z,1.50
2019-04-20T03:30:00.597Z,1.70
2019-04-20T03:35:20.961Z,1.90
2019-04-20T03:40:17.646Z,2.10
2019-04-20T03:45:14.912Z,2.20
2019-04-20T03:50:42.522Z,2.30
2019-04-20T03:56:14.041Z,2.60
2019-04-20T04:01:45.942Z,2.90
2019-04-20T04:06:26.348Z,3.30
2019-04-20T04:11:41.402Z,3.60
2019-04-20T04:16:42.834Z,3.90
2019-04-20T04:22:00.801Z,4.20
2019-04-20T04:27:05.892Z,4.60
2019-04-20T04:32:33.328Z,4.80
2019-04-20T04:37:24.309Z,5.00
2019-04-20T04:42:42.386Z,5.20
2019-04-20T04:47:28.603Z,5.30
2019-04-20T04:52:47.839Z,5.50
2019-04-20T04:57:45.375Z,5.80
2019-04-20T05:02:55.530Z,6.10
2019-04-20T05:08:10.201Z,6.50
2019-04-20T05:13:11.312Z,6.80
2019-04-20T05:18:44.920Z,7.10
2019-04-20T05:23:53.277Z,7.40
2019-04-20T05:28:58.965Z,7.60
2019-04-20T05:34:20.399Z,7.90
2019-04-20T05:39:36.827Z,8.10
2019-04-20T05:44:48.609Z,8.50
2019-04-20T05:49:50.083Z,8.90
2019-04-20T05:55:02.973Z,9.30
2019-04-20T06:00:15.898Z,9.60
2019-04-20T06:05:21.980Z,10.00
2019-04-20T06:10:36.121Z,10.40
2019-04-20T06:15:44.658Z,10.70
2019-04-20T06:20:52.392Z,11.10
2019-04-20T06:26:20.572Z,11.50
2019-04-20T06:31:14.935Z,11.90
2019-04-20T06:36:29.216Z,12.30
2019-04-20T06:41:45.373Z,12.70
2019-04-20T06:46:45.636Z,12.90
2019-04-20T06:51:54.287Z,13.20
2019-04-20T06:57:04.227Z,13.50
2019-04-20T07:02:18.707Z,13.80
2019-04-20T07:07:22.685Z,13.90
2019-04-20T07:12:24.360Z,13.90
2019-04-20T07:23:03.623Z,14.70
2019-04-20T07:28:05.370Z,15.00
2019-04-20T07:33:18.714Z,15.40
2019-04-20T07:38:41.788Z,15.80
2019-04-20T07:43:30.135Z,16.30
2019-04-20T07:48:39.626Z,16.50
2019-04-20T07:53:43.081Z,16.70
2019-04-20T07:58:47.486Z,16.90
2019-04-20T08:04:13.584Z,17.00
2019-04-20T08:09:22.018Z,17.10
2019-04-20T08:14:48.015Z,17.50
2019-04-20T08:19:49.499Z,17.50
2019-04-20T08:24:52.254Z,17.60
2019-04-20T08:30:02.076Z,17.70
2019-04-20T08:35:25.939Z,17.70
2019-04-20T08:40:36.080Z,18.00
2019-04-20T08:45:41.940Z,18.20
2019-04-20T08:50:55.595Z,18.50
2019-04-20T08:55:53.786Z,18.60
2019-04-20T09:00:53.587Z,18.40
2019-04-20T09:06:04.711Z,18.60
2019-04-20T09:11:20.285Z,18.80
2019-04-20T09:16:15.372Z,18.70
2019-04-20T09:21:33.071Z,18.80
2019-04-20T09:26:50.559Z,19.20
2019-04-20T09:32:16.769Z,19.30
2019-04-20T09:37:41.731Z,19.20
2019-04-20T09:42:46.762Z,19.30
2019-04-20T09:47:56.640Z,19.80
2019-04-20T09:53:19.569Z,19.90
2019-04-20T09:58:21.312Z,19.80
2019-04-20T10:03:20.945Z,20.00
2019-04-20T10:08:29.331Z,20.00
2019-04-20T10:13:36.724Z,20.00
2019-04-20T10:18:46.810Z,20.30
2019-04-20T10:23:52.615Z,20.60
2019-04-20T10:28:59.989Z,20.40
2019-04-20T10:34:07.409Z,20.70
2019-04-20T10:39:16.255Z,20.90
2019-04-20T10:44:23.436Z,21.20
2019-04-20T10:49:31.198Z,21.30
2019-04-20T10:54:38.524Z,21.60
2019-04-20T10:59:47.755Z,21.90
2019-04-20T11:04:54.883Z,21.90
2019-04-20T11:10:13.411Z,21.90
2019-04-20T11:15:12.966Z,21.80
2019-04-20T11:20:21.374Z,22.20
2019-04-20T11:25:30.255Z,22.20
2019-04-20T11:30:38.833Z,21.70
2019-04-20T11:35:46.912Z,21.80
2019-04-20T11:41:09.916Z,21.60
2019-04-20T11:46:04.835Z,22.10
2019-04-20T11:51:13.792Z,23.00
2019-04-20T11:56:26.196Z,23.20
2019-04-20T12:01:49.349Z,23.60
2019-04-20T12:06:54.837Z,24.10
2019-04-20T12:12:15.721Z,24.50
2019-04-20T12:17:11.899Z,25.30
2019-04-20T12:22:19.080Z,26.50
2019-04-20T12:27:26.958Z,27.60
2019-04-20T12:32:42.248Z,28.10
2019-04-20T12:37:43.168Z,28.40
2019-04-20T12:42:50.926Z,29.20
2019-04-20T12:47:58.136Z,30.40
2019-04-20T12:53:06.526Z,32.30
2019-04-20T12:58:14.580Z,33.00
2019-04-20T13:03:23.450Z,33.90
2019-04-20T13:08:36.820Z,33.90
2019-04-20T13:14:10.343Z,34.20
2019-04-20T13:19:19.433Z,34.10
2019-04-20T13:24:27.213Z,32.80
2019-04-20T13:29:35.123Z,32.70
2019-04-20T13:34:42.788Z,32.10
2019-04-20T13:39:51.086Z,29.70
2019-04-20T13:44:59.078Z,30.20
2019-04-20T13:50:07.230Z,30.00
2019-04-20T13:55:14.867Z,30.30
2019-04-20T14:00:45.046Z,31.30
2019-04-20T14:05:53.656Z,30.40
2019-04-20T14:11:00.832Z,29.30
2019-04-20T14:16:09.119Z,28.80
2019-04-20T14:21:18.483Z,28.70
2019-04-20T14:26:25.668Z,28.90
2019-04-20T14:31:33.971Z,29.50
2019-04-20T14:36:41.589Z,31.00
2019-04-20T14:41:48.710Z,31.70
2019-04-20T14:46:57.992Z,32.50
2019-04-20T14:52:06.338Z,33.10
2019-04-20T14:57:13.809Z,33.10
2019-04-20T15:02:25.827Z,34.00
2019-04-20T15:07:33.510Z,33.90
2019-04-20T15:12:48.833Z,33.40
2019-04-20T15:17:55.422Z,33.10
2019-04-20T15:23:09.553Z,33.50
2019-04-20T15:28:16.797Z,33.60
2019-04-20T15:33:25.128Z,33.40
2019-04-20T15:38:33.283Z,33.20
2019-04-20T15:43:41.461Z,33.30
2019-04-20T15:48:50.127Z,32.60
2019-04-20T15:53:57.753Z,32.20
2019-04-20T15:59:06.428Z,32.50
2019-04-20T16:04:37.281Z,32.00
2019-04-20T16:09:42.124Z,31.70
2019-04-20T16:14:51.337Z,31.10
2019-04-20T16:20:07.983Z,30.70
2019-04-20T16:25:21.648Z,30.70
2019-04-20T16:30:29.755Z,30.50
2019-04-20T16:35:38.285Z,29.50
2019-04-20T16:40:46.533Z,28.90
2019-04-20T16:45:55.066Z,28.60
2019-04-20T16:51:02.958Z,28.20
2019-04-20T16:56:10.632Z,27.50
2019-04-20T17:01:17.752Z,27.40
2019-04-20T17:06:26.311Z,26.40
2019-04-20T17:11:34.086Z,25.70
2019-04-20T17:16:41.912Z,25.00
2019-04-20T17:21:49.104Z,24.30
2019-04-20T17:27:13.163Z,23.60
2019-04-20T17:32:23.248Z,21.00
2019-04-20T17:37:39.026Z,18.50
2019-04-20T17:42:50.952Z,17.10
2019-04-20T17:48:05.332Z,16.40
2019-04-20T17:53:08.942Z,15.70
2019-04-20T17:58:13.775Z,15.00
2019-04-20T18:03:52.843Z,14.50
2019-04-20T18:08:45.386Z,14.10
2019-04-20T18:13:35.918Z,13.80
2019-04-20T18:19:04.014Z,13.50
2019-04-20T18:24:14.139Z,13.20
2019-04-20T18:29:38.398Z,13.00
2019-04-20T18:34:44.982Z,12.60
2019-04-20T18:39:57.466Z,12.40
2019-04-20T18:45:20.049Z,12.20
2019-04-20T18:50:18.414Z,12.00
2019-04-20T18:55:29.048Z,11.80
2019-04-20T19:00:33.397Z,11.60
2019-04-20T19:05:38.003Z,11.40
2019-04-20T19:10:54.181Z,11.20
2019-04-20T19:16:17.581Z,10.90
2019-04-20T19:21:15.197Z,10.70
2019-04-20T19:26:23.790Z,10.50
2019-04-20T19:31:45.842Z,10.30
2019-04-20T19:36:53.375Z,10.10
2019-04-20T19:41:59.678Z,9.80
2019-04-20T19:47:15.885Z,9.90
2019-04-20T19:52:36.769Z,9.70
2019-04-20T19:57:35.091Z,9.60
2019-04-20T20:02:25.931Z,9.40
2019-04-20T20:07:41.192Z,9.30
2019-04-20T20:12:47.951Z,9.20
2019-04-20T20:18:10.976Z,9.00
2019-04-20T20:23:01.853Z,8.90
2019-04-20T20:28:19.127Z,8.70
2019-04-20T20:33:36.405Z,8.40
2019-04-20T20:38:35.255Z,8.20
2019-04-20T20:43:49.570Z,8.10
2019-04-20T20:49:06.213Z,8.00
2019-04-20T20:54:02.246Z,8.00
2019-04-20T20:59:10.543Z,7.80
2019-04-20T21:04:10.063Z,7.80
2019-04-20T21:09:18.495Z,7.70
2019-04-20T21:14:29.261Z,7.60
2019-04-20T21:19:55.794Z,7.40
2019-04-20T21:24:49.808Z,7.30
2019-04-20T21:29:58.658Z,7.20
2019-04-20T21:35:11.039Z,7.20
2019-04-20T21:40:24.931Z,7.10
2019-04-20T21:45:30.330Z,6.90
2019-04-20T21:50:53.447Z,6.70
2019-04-20T21:55:43.726Z,6.70
2019-04-20T22:01:07.236Z,6.60
2019-04-20T22:06:06.924Z,6.40
2019-04-20T22:11:15.669Z,6.30
2019-04-20T22:16:25.595Z,6.10
2019-04-20T22:21:46.629Z,6.00
2019-04-20T22:26:52.444Z,5.90
2019-04-20T22:31:53.486Z,5.70
2019-04-20T22:36:58.216Z,5.60
2019-04-20T22:42:09.628Z,5.50
2019-04-20T22:47:22.682Z,5.40
2019-04-20T22:52:40.920Z,5.30
2019-04-20T22:57:48.837Z,5.20
2019-04-20T23:02:42.865Z,5.10
2019-04-20T23:07:50.565Z,4.90
2019-04-20T23:12:59.569Z,4.90
2019-04-20T23:18:06.552Z,4.80
2019-04-20T23:23:18.191Z,4.80
2019-04-20T23:28:23.048Z,4.90
2019-04-20T23:33:31.819Z,4.80
2019-04-20T23:38:49.078Z,4.70
2019-04-20T23:44:04.175Z,4.50
2019-04-20T23:49:29.874Z,4.30
2019-04-20T23:54:37.053Z,4.20
2019-04-20T23:59:44.940Z,4.30
